»·PEaware :: N528WD KABQ-KSNA

N528WD :: KABQ-KSNA

FLIGHT INFORMATION

Flight Status: Arrived
Operator: Privately registered:
United States
More flights under this callsign
Pilot: Christian M. (7618)
Aircraft: ECLIPSE 500
(EA50)
More flights by this aircraft type
Origin: KABQ Albuquerque Intl Sunport
United States
Destination: KSNA John Wayne-Orange Co
United States
More flights between these airports :: More routes between these airports
Route: +RDRNR3 ZUN J6 DRK HIMDU DSNEE3
File this flight plan on PilotEdge
Remarks:
Altitude:
(Current/Filed)
30,000ft
Speed:
(Current/Filed)
370kts
Departed: 17-May-18 11:20 AM
Arrived: 17-May-18 01:48 PM
Distance/Time
Traveled:
564nm/2:28
Distance/Time
To Go:
Arrived

Flight Plot

Page will automatically refresh every two minutes.

Flight plan parsing failed; only flown route is shown


Map Options




Map Legend


Flown Route
Filed Route
Departure Airport
Arrival Airport
Navaid (VOR, NDB)
Fix

Horizontal Profiles

Position Reports

Time Latitude Longitude Heading Altitude Ground
Speed
17-May-18 10:53 35.039337 -106.619718 91 5319ft 0kts
17-May-18 10:54 35.039338 -106.619739 91 5318ft 0kts
17-May-18 10:55 35.039338 -106.619739 91 5318ft 0kts
17-May-18 10:56 35.039338 -106.619739 91 5318ft 0kts
17-May-18 10:57 35.039338 -106.619739 91 5318ft 0kts
17-May-18 10:58 35.039338 -106.619739 91 5318ft 0kts
17-May-18 10:59 35.039338 -106.619739 91 5318ft 0kts
17-May-18 11:00 35.039338 -106.619739 91 5318ft 0kts
17-May-18 11:01 35.039338 -106.619739 91 5318ft 0kts
17-May-18 11:02 35.039338 -106.619739 91 5318ft 0kts
17-May-18 11:03 35.039338 -106.619739 91 5318ft 0kts
17-May-18 11:04 35.039338 -106.619739 91 5318ft 0kts
17-May-18 11:05 35.039338 -106.619739 91 5318ft 0kts
17-May-18 11:06 35.039338 -106.619739 91 5318ft 0kts
17-May-18 11:07 35.039338 -106.619739 91 5318ft 0kts
17-May-18 11:08 35.039338 -106.619739 91 5318ft 0kts
17-May-18 11:09 35.039338 -106.619739 91 5318ft 0kts
17-May-18 11:10 35.039338 -106.619739 91 5318ft 0kts
17-May-18 11:11 35.039338 -106.619739 91 5318ft 0kts
17-May-18 11:12 35.039338 -106.619739 91 5318ft 0kts
17-May-18 11:13 35.039820 -106.620386 274 5318ft 4kts
17-May-18 11:14 35.039767 -106.621249 288 5318ft 5kts
17-May-18 11:15 35.041738 -106.621410 357 5318ft 8kts
17-May-18 11:16 35.042833 -106.621428 0 5318ft 0kts
17-May-18 11:17 35.042833 -106.621428 0 5318ft 0kts
17-May-18 11:18 35.042833 -106.621428 0 5318ft 0kts
17-May-18 11:19 35.043013 -106.621426 359 5318ft 6kts
17-May-18 11:20 35.044331 -106.618464 90 5318ft 51kts
17-May-18 11:21 35.044033 -106.579004 94 5916ft 156kts
17-May-18 11:22 35.069582 -106.549385 325 7737ft 164kts
17-May-18 11:23 35.081245 -106.599177 272 9552ft 167kts
17-May-18 11:24 35.085430 -106.658454 272 11264ft 183kts
17-May-18 11:25 35.090103 -106.721724 272 13174ft 183kts
17-May-18 11:26 35.097611 -106.784659 273 14807ft 190kts
17-May-18 11:27 35.106675 -106.852465 274 16070ft 212kts
17-May-18 11:28 35.106121 -106.922002 254 17546ft 211kts
17-May-18 11:29 35.092693 -106.991910 254 18957ft 212kts
17-May-18 11:30 35.079125 -107.060652 253 20348ft 209kts
17-May-18 11:31 35.065527 -107.128666 253 21672ft 205kts
17-May-18 11:32 35.052062 -107.195528 253 22907ft 201kts
17-May-18 11:33 35.039017 -107.260089 255 24036ft 198kts
17-May-18 11:34 35.036122 -107.327179 262 25096ft 197kts
17-May-18 11:35 35.033919 -107.391469 262 26346ft 181kts
17-May-18 11:36 35.031906 -107.451768 262 27235ft 179kts
17-May-18 11:37 35.029907 -107.512291 262 28002ft 180kts
17-May-18 11:38 35.027895 -107.573228 262 28719ft 181kts
17-May-18 11:39 35.025848 -107.634821 262 29430ft 182kts
17-May-18 11:40 35.023880 -107.693185 262 30072ft 185kts
17-May-18 11:41 35.021736 -107.754993 262 30104ft 213kts
17-May-18 11:42 35.019071 -107.831877 263 30102ft 239kts
17-May-18 11:43 35.016106 -107.916226 263 30100ft 258kts
17-May-18 11:44 35.012899 -108.005731 263 30099ft 272kts
17-May-18 11:45 35.009536 -108.097976 263 30097ft 270kts
17-May-18 11:46 35.006202 -108.187094 263 30096ft 264kts
17-May-18 11:47 35.002825 -108.275773 263 30097ft 260kts
17-May-18 11:48 34.999416 -108.363310 263 30106ft 257kts
17-May-18 11:49 34.996004 -108.449355 263 30115ft 254kts
17-May-18 11:50 34.992551 -108.534924 263 30119ft 252kts
17-May-18 11:51 34.989059 -108.620040 263 30118ft 251kts
17-May-18 11:52 34.985809 -108.697760 263 30128ft 250kts
17-May-18 11:53 34.982220 -108.782437 263 30127ft 251kts
17-May-18 11:54 34.978553 -108.867525 263 30126ft 251kts
17-May-18 11:55 34.975023 -108.948156 263 30125ft 251kts
17-May-18 11:56 34.971279 -109.032909 262 30116ft 251kts
17-May-18 11:57 34.967469 -109.117589 262 30101ft 249kts
17-May-18 11:58 34.962652 -109.201249 260 30084ft 247kts
17-May-18 11:59 34.957223 -109.284006 260 30066ft 244kts
17-May-18 12:00 34.951783 -109.365784 260 30050ft 243kts
17-May-18 12:01 34.946282 -109.447470 260 30037ft 241kts
17-May-18 12:02 34.940763 -109.528643 260 30035ft 240kts
17-May-18 12:03 34.935215 -109.609389 260 30034ft 239kts
17-May-18 12:04 34.930411 -109.678548 260 30046ft 238kts
17-May-18 12:05 34.926691 -109.731807 260 30060ft 239kts
17-May-18 12:06 34.921052 -109.811934 260 30086ft 239kts
17-May-18 12:07 34.915330 -109.892472 260 30112ft 239kts
17-May-18 12:08 34.909673 -109.971375 260 30120ft 240kts
17-May-18 12:09 34.903807 -110.052414 260 30114ft 240kts
17-May-18 12:10 34.897971 -110.132327 260 30118ft 241kts
17-May-18 12:11 34.893122 -110.198124 260 30108ft 242kts
17-May-18 12:12 34.887040 -110.280002 260 30076ft 244kts
17-May-18 12:13 34.880896 -110.362001 260 30040ft 245kts
17-May-18 12:14 34.874671 -110.444303 260 30020ft 245kts
17-May-18 12:15 34.868405 -110.526389 260 30019ft 244kts
17-May-18 12:16 34.862084 -110.608420 260 30017ft 243kts
17-May-18 12:17 34.855981 -110.686841 260 30027ft 244kts
17-May-18 12:18 34.849821 -110.765489 260 30026ft 245kts
17-May-18 12:19 34.843279 -110.848262 260 30025ft 246kts
17-May-18 12:20 34.836751 -110.930211 260 30023ft 246kts
17-May-18 12:21 34.830123 -111.012717 259 29996ft 247kts
17-May-18 12:22 34.823386 -111.095878 259 29994ft 246kts
17-May-18 12:23 34.816593 -111.178763 259 30011ft 245kts
17-May-18 12:24 34.809818 -111.260805 259 30040ft 244kts
17-May-18 12:25 34.803124 -111.341198 259 30064ft 243kts
17-May-18 12:26 34.796306 -111.422495 259 30058ft 243kts
17-May-18 12:27 34.789409 -111.504059 259 30037ft 243kts
17-May-18 12:28 34.782446 -111.585771 259 30019ft 243kts
17-May-18 12:29 34.775585 -111.665548 258 30024ft 242kts
17-May-18 12:30 34.768679 -111.745331 259 30025ft 244kts
17-May-18 12:31 34.761554 -111.827120 259 30025ft 245kts
17-May-18 12:32 34.754309 -111.909463 259 30023ft 245kts
17-May-18 12:33 34.747017 -111.991762 259 30022ft 246kts
17-May-18 12:34 34.739803 -112.072604 259 30010ft 246kts
17-May-18 12:35 34.732379 -112.155103 259 30000ft 246kts
17-May-18 12:36 34.724905 -112.237530 259 30008ft 245kts
17-May-18 12:37 34.717431 -112.319351 259 30016ft 244kts
17-May-18 12:38 34.709896 -112.401213 259 30016ft 244kts
17-May-18 12:39 34.701950 -112.481942 254 30015ft 242kts
17-May-18 12:40 34.687097 -112.561172 254 30014ft 241kts
17-May-18 12:41 34.673371 -112.633745 253 30013ft 241kts
17-May-18 12:42 34.658654 -112.710965 253 30025ft 242kts
17-May-18 12:43 34.643385 -112.790710 253 30024ft 243kts
17-May-18 12:44 34.627979 -112.870803 253 30023ft 244kts
17-May-18 12:45 34.612517 -112.950858 253 30021ft 245kts
17-May-18 12:46 34.596875 -113.031551 253 30020ft 245kts
17-May-18 12:47 34.581197 -113.112162 253 30017ft 246kts
17-May-18 12:48 34.565566 -113.192224 253 30016ft 246kts
17-May-18 12:49 34.549804 -113.272633 253 30017ft 245kts
17-May-18 12:50 34.533958 -113.353165 253 29997ft 246kts
17-May-18 12:51 34.518116 -113.433382 253 29963ft 246kts
17-May-18 12:52 34.502169 -113.513838 253 29920ft 247kts
17-May-18 12:53 34.486067 -113.594766 253 29878ft 247kts
17-May-18 12:54 34.470824 -113.671066 253 29859ft 247kts
17-May-18 12:55 34.455139 -113.749366 253 29838ft 248kts
17-May-18 12:56 34.439240 -113.828439 253 29834ft 244kts
17-May-18 12:57 34.422898 -113.909391 253 29832ft 255kts
17-May-18 12:58 34.405703 -113.994288 253 29831ft 263kts
17-May-18 12:59 34.387207 -114.080429 252 29829ft 268kts
17-May-18 13:00 34.370872 -114.155425 252 29828ft 270kts
17-May-18 13:01 34.351602 -114.243494 252 29827ft 272kts
17-May-18 13:02 34.332261 -114.331886 253 29825ft 273kts
17-May-18 13:03 34.312844 -114.420908 253 29824ft 274kts
17-May-18 13:04 34.293347 -114.510007 253 29823ft 274kts
17-May-18 13:05 34.273840 -114.598836 253 29821ft 274kts
17-May-18 13:06 34.254966 -114.684371 252 29833ft 274kts
17-May-18 13:07 34.235150 -114.771424 252 29832ft 275kts
17-May-18 13:08 34.215013 -114.859486 252 29830ft 269kts
17-May-18 13:09 34.195357 -114.945085 252 29829ft 261kts
17-May-18 13:10 34.176678 -115.028864 252 29852ft 256kts
17-May-18 13:11 34.158334 -115.111061 253 29874ft 252kts
17-May-18 13:12 34.140129 -115.192433 253 29884ft 250kts
17-May-18 13:13 34.122050 -115.273070 253 29900ft 248kts
17-May-18 13:14 34.107083 -115.339605 253 29925ft 247kts
17-May-18 13:15 34.089133 -115.419141 253 29965ft 245kts
17-May-18 13:16 34.071161 -115.498503 253 29984ft 245kts
17-May-18 13:17 34.053951 -115.576291 258 29981ft 236kts
17-May-18 13:18 34.042945 -115.653295 257 29986ft 242kts
17-May-18 13:19 34.033137 -115.722354 257 29637ft 268kts
17-May-18 13:20 34.022882 -115.794957 258 28784ft 299kts
17-May-18 13:21 34.008471 -115.896982 258 27626ft 325kts
17-May-18 13:22 33.993005 -116.005928 258 26429ft 340kts
17-May-18 13:23 33.976817 -116.119227 259 25215ft 349kts
17-May-18 13:24 33.960917 -116.235165 260 24128ft 352kts
17-May-18 13:25 33.947895 -116.339651 260 23757ft 340kts
17-May-18 13:26 33.935177 -116.442408 260 22654ft 351kts
17-May-18 13:27 33.920676 -116.558384 260 21717ft 347kts
17-May-18 13:28 33.906916 -116.665225 260 19954ft 333kts
17-May-18 13:29 33.895346 -116.755420 261 18473ft 329kts
17-May-18 13:30 33.884967 -116.849849 261 16509ft 302kts
17-May-18 13:31 33.874293 -116.946634 262 14337ft 293kts
17-May-18 13:32 33.863735 -117.042095 262 12502ft 280kts
17-May-18 13:33 33.853705 -117.132168 263 11106ft 270kts
17-May-18 13:34 33.843878 -117.220075 263 9926ft 259kts
17-May-18 13:35 33.834544 -117.303216 263 8839ft 255kts
17-May-18 13:36 33.825056 -117.386891 263 7958ft 253kts
17-May-18 13:37 33.811225 -117.466478 251 7947ft 238kts
17-May-18 13:38 33.798477 -117.541544 271 7956ft 230kts
17-May-18 13:39 33.810862 -117.615059 301 7799ft 234kts
17-May-18 13:40 33.841554 -117.671667 301 6868ft 213kts
17-May-18 13:41 33.869407 -117.721004 300 5532ft 195kts
17-May-18 13:42 33.842866 -117.763106 206 4037ft 192kts
17-May-18 13:43 33.798071 -117.791133 208 2675ft 163kts
17-May-18 13:44 33.761206 -117.814540 206 1845ft 145kts
17-May-18 13:45 33.730130 -117.834357 206 1109ft 105kts
17-May-18 13:46 33.704430 -117.850636 205 697ft 101kts
17-May-18 13:47 33.682124 -117.864782 205 96ft 85kts
17-May-18 13:48 33.671624 -117.871414 205 59ft 11kts
17-May-18 13:49 33.669551 -117.872038 148 59ft 4kts
17-May-18 13:50 33.667608 -117.872475 219 59ft 12kts
17-May-18 13:51 33.665966 -117.872967 223 59ft 0kts

Navigation Log

Ident Type
Flight plan parsing failed, navigation log unavailable